sensor_id;sensor_type;location;lat;lon;timestamp;pressure;altitude;pressure_sealevel;temperature;humidity
6136;BME280;24008;42.664;23.372;2023-02-15T00:01:31;95902.31;;;1.19;83.49
6136;BME280;24008;42.664;23.372;2023-02-15T00:04:00;95930.31;;;1.33;83.72
6136;BME280;24008;42.664;23.372;2023-02-15T00:06:27;95906.00;;;1.09;84.14
6136;BME280;24008;42.664;23.372;2023-02-15T00:08:54;95947.19;;;1.31;83.64
6136;BME280;24008;42.664;23.372;2023-02-15T00:11:21;95898.44;;;1.09;84.19
6136;BME280;24008;42.664;23.372;2023-02-15T00:14:02;95914.47;;;1.08;84.65
6136;BME280;24008;42.664;23.372;2023-02-15T00:16:31;95945.75;;;1.24;85.01
6136;BME280;24008;42.664;23.372;2023-02-15T00:18:58;95951.66;;;1.23;85.35
6136;BME280;24008;42.664;23.372;2023-02-15T00:21:28;95940.81;;;1.21;85.45
6136;BME280;24008;42.664;23.372;2023-02-15T00:23:56;95876.91;;;0.79;85.37
6136;BME280;24008;42.664;23.372;2023-02-15T00:26:23;95944.25;;;1.20;85.71
6136;BME280;24008;42.664;23.372;2023-02-15T00:28:50;95941.72;;;1.20;86.09
6136;BME280;24008;42.664;23.372;2023-02-15T00:31:16;95955.19;;;1.19;85.94
6136;BME280;24008;42.664;23.372;2023-02-15T00:33:43;95950.19;;;1.18;86.21
6136;BME280;24008;42.664;23.372;2023-02-15T00:36:10;95948.47;;;1.20;86.36
6136;BME280;24008;42.664;23.372;2023-02-15T00:38:39;95930.50;;;1.05;86.26
6136;BME280;24008;42.664;23.372;2023-02-15T00:41:07;95953.53;;;1.18;86.73
6136;BME280;24008;42.664;23.372;2023-02-15T00:43:35;95960.28;;;1.18;86.39
6136;BME280;24008;42.664;23.372;2023-02-15T00:46:03;95954.41;;;1.17;86.33
6136;BME280;24008;42.664;23.372;2023-02-15T00:48:30;95952.00;;;1.14;86.46
6136;BME280;24008;42.664;23.372;2023-02-15T00:50:59;95930.00;;;0.96;86.43
6136;BME280;24008;42.664;23.372;2023-02-15T00:53:27;95895.41;;;0.78;86.46
6136;BME280;24008;42.664;23.372;2023-02-15T00:55:56;95947.06;;;1.11;86.58
6136;BME280;24008;42.664;23.372;2023-02-15T00:58:23;95946.97;;;1.14;86.67
6136;BME280;24008;42.664;23.372;2023-02-15T01:00:51;95897.75;;;0.82;86.69
6136;BME280;24008;42.664;23.372;2023-02-15T01:03:19;95947.00;;;1.13;86.87
6136;BME280;24008;42.664;23.372;2023-02-15T01:05:46;95956.38;;;1.09;86.76
6136;BME280;24008;42.664;23.372;2023-02-15T01:08:14;95839.47;;;0.46;86.63
6136;BME280;24008;42.664;23.372;2023-02-15T01:10:41;95941.38;;;1.06;86.89
6136;BME280;24008;42.664;23.372;2023-02-15T01:13:10;95925.94;;;0.92;86.81
6136;BME280;24008;42.664;23.372;2023-02-15T01:15:37;95922.59;;;0.91;86.94
6136;BME280;24008;42.664;23.372;2023-02-15T01:18:04;95916.78;;;0.89;87.02
6136;BME280;24008;42.664;23.372;2023-02-15T01:20:34;95929.88;;;0.99;87.21
6136;BME280;24008;42.664;23.372;2023-02-15T01:23:02;95873.94;;;0.67;87.14
6136;BME280;24008;42.664;23.372;2023-02-15T01:25:29;95889.53;;;0.77;87.02
6136;BME280;24008;42.664;23.372;2023-02-15T01:27:56;95910.28;;;0.84;86.77
6136;BME280;24008;42.664;23.372;2023-02-15T01:30:24;95930.59;;;1.02;87.18
6136;BME280;24008;42.664;23.372;2023-02-15T01:32:51;95913.47;;;0.89;87.41
6136;BME280;24008;42.664;23.372;2023-02-15T01:35:17;95892.78;;;0.81;87.35
6136;BME280;24008;42.664;23.372;2023-02-15T01:37:44;95871.19;;;0.73;87.15
6136;BME280;24008;42.664;23.372;2023-02-15T01:40:13;95920.47;;;1.04;87.35
6136;BME280;24008;42.664;23.372;2023-02-15T01:42:40;95917.97;;;1.04;87.64
6136;BME280;24008;42.664;23.372;2023-02-15T01:45:18;95922.16;;;1.03;87.98
6136;BME280;24008;42.664;23.372;2023-02-15T01:47:51;95884.50;;;0.77;87.78
6136;BME280;24008;42.664;23.372;2023-02-15T01:50:21;95919.69;;;1.02;88.08
6136;BME280;24008;42.664;23.372;2023-02-15T01:52:52;95914.78;;;0.99;88.12
6136;BME280;24008;42.664;23.372;2023-02-15T01:55:23;95922.31;;;0.99;88.16
6136;BME280;24008;42.664;23.372;2023-02-15T01:57:51;95895.19;;;0.84;88.11
6136;BME280;24008;42.664;23.372;2023-02-15T02:00:19;95886.88;;;0.82;88.36
6136;BME280;24008;42.664;23.372;2023-02-15T02:02:51;95907.34;;;0.96;88.64
6136;BME280;24008;42.664;23.372;2023-02-15T02:05:20;95886.06;;;0.81;88.71
6136;BME280;24008;42.664;23.372;2023-02-15T02:07:48;95808.91;;;0.33;88.91
6136;BME280;24008;42.664;23.372;2023-02-15T02:10:19;95909.09;;;0.94;89.00
6136;BME280;24008;42.664;23.372;2023-02-15T02:12:49;95912.47;;;0.93;89.03
6136;BME280;24008;42.664;23.372;2023-02-15T02:15:17;95831.06;;;0.47;88.95
6136;BME280;24008;42.664;23.372;2023-02-15T02:17:57;95913.34;;;0.92;89.45
6136;BME280;24008;42.664;23.372;2023-02-15T02:20:39;95866.59;;;0.61;89.11
6136;BME280;24008;42.664;23.372;2023-02-15T02:23:29;95838.91;;;0.38;89.30
6136;BME280;24008;42.664;23.372;2023-02-15T02:26:17;95891.63;;;0.66;89.44
6136;BME280;24008;42.664;23.372;2023-02-15T02:29:05;95875.75;;;0.64;89.56
6136;BME280;24008;42.664;23.372;2023-02-15T02:31:53;95905.47;;;0.78;89.86
6136;BME280;24008;42.664;23.372;2023-02-15T02:34:28;95930.19;;;0.90;89.61
6136;BME280;24008;42.664;23.372;2023-02-15T02:36:59;95899.84;;;0.71;89.83
6136;BME280;24008;42.664;23.372;2023-02-15T02:39:33;95899.06;;;0.69;90.25
6136;BME280;24008;42.664;23.372;2023-02-15T02:42:08;95927.63;;;0.91;89.87
6136;BME280;24008;42.664;23.372;2023-02-15T02:44:43;95920.97;;;0.90;90.14
6136;BME280;24008;42.664;23.372;2023-02-15T02:47:13;95852.69;;;0.51;90.28
6136;BME280;24008;42.664;23.372;2023-02-15T02:49:44;95926.59;;;0.97;90.23
6136;BME280;24008;42.664;23.372;2023-02-15T02:52:38;95920.75;;;0.96;90.42
6136;BME280;24008;42.664;23.372;2023-02-15T02:55:06;95921.56;;;0.97;90.44
6136;BME280;24008;42.664;23.372;2023-02-15T02:57:37;95901.94;;;0.83;90.40
6136;BME280;24008;42.664;23.372;2023-02-15T03:00:08;95875.69;;;0.65;90.29
6136;BME280;24008;42.664;23.372;2023-02-15T03:02:38;95932.34;;;1.00;90.62
6136;BME280;24008;42.664;23.372;2023-02-15T03:05:11;95937.28;;;1.03;90.29
6136;BME280;24008;42.664;23.372;2023-02-15T03:07:40;95937.22;;;1.05;90.34
6136;BME280;24008;42.664;23.372;2023-02-15T03:10:09;95937.13;;;1.08;90.43
6136;BME280;24008;42.664;23.372;2023-02-15T03:12:38;95918.94;;;1.00;90.37
6136;BME280;24008;42.664;23.372;2023-02-15T03:15:09;95865.28;;;0.75;90.02
6136;BME280;24008;42.664;23.372;2023-02-15T03:17:40;95946.75;;;1.20;90.03
6136;BME280;24008;42.664;23.372;2023-02-15T03:20:14;95665.19;;;-0.49;89.62
6136;BME280;24008;42.664;23.372;2023-02-15T03:22:46;95949.81;;;1.28;89.44
6136;BME280;24008;42.664;23.372;2023-02-15T03:25:17;95939.91;;;1.24;89.31
6136;BME280;24008;42.664;23.372;2023-02-15T03:27:48;95950.34;;;1.36;89.24
6136;BME280;24008;42.664;23.372;2023-02-15T03:30:19;95926.44;;;1.25;88.72
6136;BME280;24008;42.664;23.372;2023-02-15T03:32:48;95916.41;;;1.23;88.92
6136;BME280;24008;42.664;23.372;2023-02-15T03:35:19;95945.09;;;1.42;88.72
6136;BME280;24008;42.664;23.372;2023-02-15T03:37:50;95944.09;;;1.47;88.56
6136;BME280;24008;42.664;23.372;2023-02-15T03:40:19;95953.25;;;1.49;88.57
6136;BME280;24008;42.664;23.372;2023-02-15T03:43:12;95923.41;;;1.38;88.13
6136;BME280;24008;42.664;23.372;2023-02-15T03:45:46;95828.13;;;0.83;88.25
6136;BME280;24008;42.664;23.372;2023-02-15T03:48:23;95943.88;;;1.53;88.20
6136;BME280;24008;42.664;23.372;2023-02-15T03:50:53;95948.06;;;1.54;88.07
6136;BME280;24008;42.664;23.372;2023-02-15T03:53:40;95939.56;;;1.56;88.07
6136;BME280;24008;42.664;23.372;2023-02-15T03:56:08;95942.00;;;1.58;88.00
6136;BME280;24008;42.664;23.372;2023-02-15T03:58:34;95942.91;;;1.57;87.71
6136;BME280;24008;42.664;23.372;2023-02-15T04:01:32;95942.75;;;1.60;88.20
6136;BME280;24008;42.664;23.372;2023-02-15T04:04:19;95944.41;;;1.61;87.51
6136;BME280;24008;42.664;23.372;2023-02-15T04:06:49;95908.28;;;1.38;87.51
6136;BME280;24008;42.664;23.372;2023-02-15T04:09:15;95947.69;;;1.63;87.56
6136;BME280;24008;42.664;23.372;2023-02-15T04:12:00;95928.00;;;1.51;87.27
6136;BME280;24008;42.664;23.372;2023-02-15T04:14:26;95956.66;;;1.70;87.71
6136;BME280;24008;42.664;23.372;2023-02-15T04:17:10;95963.28;;;1.72;87.47
6136;BME280;24008;42.664;23.372;2023-02-15T04:19:37;95954.81;;;1.75;87.06
6136;BME280;24008;42.664;23.372;2023-02-15T04:22:22;95943.38;;;1.66;87.00
6136;BME280;24008;42.664;23.372;2023-02-15T04:25:07;95963.75;;;1.82;87.03
6136;BME280;24008;42.664;23.372;2023-02-15T04:27:38;95930.22;;;1.58;86.69
6136;BME280;24008;42.664;23.372;2023-02-15T04:30:06;95966.56;;;1.74;85.92
6136;BME280;24008;42.664;23.372;2023-02-15T04:32:33;95954.03;;;1.73;86.23
6136;BME280;24008;42.664;23.372;2023-02-15T04:35:00;95973.94;;;1.80;86.54
6136;BME280;24008;42.664;23.372;2023-02-15T04:37:29;95919.66;;;1.49;86.35
6136;BME280;24008;42.664;23.372;2023-02-15T04:39:55;95942.56;;;1.66;85.78
6136;BME280;24008;42.664;23.372;2023-02-15T04:42:23;95992.63;;;1.97;86.37
6136;BME280;24008;42.664;23.372;2023-02-15T04:44:50;95968.59;;;1.88;85.84
6136;BME280;24008;42.664;23.372;2023-02-15T04:47:17;95988.13;;;2.05;86.01
6136;BME280;24008;42.664;23.372;2023-02-15T04:49:44;95989.81;;;2.04;85.26
6136;BME280;24008;42.664;23.372;2023-02-15T04:52:10;95993.97;;;2.05;85.38
6136;BME280;24008;42.664;23.372;2023-02-15T04:54:38;95984.78;;;2.04;85.29
6136;BME280;24008;42.664;23.372;2023-02-15T04:57:05;96007.28;;;2.09;85.66
6136;BME280;24008;42.664;23.372;2023-02-15T04:59:32;95977.69;;;1.92;85.58
6136;BME280;24008;42.664;23.372;2023-02-15T05:01:59;96003.16;;;2.06;85.35
6136;BME280;24008;42.664;23.372;2023-02-15T05:04:26;95981.84;;;1.93;85.47
6136;BME280;24008;42.664;23.372;2023-02-15T05:06:53;96008.16;;;2.08;85.61
6136;BME280;24008;42.664;23.372;2023-02-15T05:09:20;96003.06;;;2.09;85.25
6136;BME280;24008;42.664;23.372;2023-02-15T05:11:48;96003.06;;;2.09;85.45
6136;BME280;24008;42.664;23.372;2023-02-15T05:14:14;96009.75;;;2.10;85.69
6136;BME280;24008;42.664;23.372;2023-02-15T05:16:41;96011.41;;;2.11;85.53
6136;BME280;24008;42.664;23.372;2023-02-15T05:19:08;96019.84;;;2.10;85.46
6136;BME280;24008;42.664;23.372;2023-02-15T05:21:35;96016.53;;;2.08;85.50
6136;BME280;24008;42.664;23.372;2023-02-15T05:24:02;96018.25;;;2.08;85.22
6136;BME280;24008;42.664;23.372;2023-02-15T05:26:50;95877.94;;;1.20;85.19
6136;BME280;24008;42.664;23.372;2023-02-15T05:29:34;95850.19;;;0.98;85.20
6136;BME280;24008;42.664;23.372;2023-02-15T05:32:01;96037.38;;;2.13;85.01
6136;BME280;24008;42.664;23.372;2023-02-15T05:34:29;96028.16;;;2.12;85.04
6136;BME280;24008;42.664;23.372;2023-02-15T05:36:56;96032.28;;;2.15;85.21
6136;BME280;24008;42.664;23.372;2023-02-15T05:39:23;95751.22;;;0.29;84.97
6136;BME280;24008;42.664;23.372;2023-02-15T05:41:51;95959.25;;;1.68;84.75
6136;BME280;24008;42.664;23.372;2023-02-15T05:44:17;96005.28;;;1.95;84.79
6136;BME280;24008;42.664;23.372;2023-02-15T05:46:44;96008.22;;;2.06;85.26
6136;BME280;24008;42.664;23.372;2023-02-15T05:49:11;96014.91;;;2.07;84.82
6136;BME280;24008;42.664;23.372;2023-02-15T05:51:38;96034.41;;;2.26;85.09
6136;BME280;24008;42.664;23.372;2023-02-15T05:54:04;95999.09;;;2.04;84.33
6136;BME280;24008;42.664;23.372;2023-02-15T05:56:31;96003.94;;;2.08;84.71
6136;BME280;24008;42.664;23.372;2023-02-15T05:58:59;95916.88;;;1.56;84.01
6136;BME280;24008;42.664;23.372;2023-02-15T06:01:26;95988.75;;;2.10;84.84
6136;BME280;24008;42.664;23.372;2023-02-15T06:03:53;96037.44;;;2.34;83.95
6136;BME280;24008;42.664;23.372;2023-02-15T06:06:21;96030.63;;;2.36;83.60
6136;BME280;24008;42.664;23.372;2023-02-15T06:08:48;96038.84;;;2.41;83.87
6136;BME280;24008;42.664;23.372;2023-02-15T06:11:14;96000.84;;;2.24;83.61
6136;BME280;24008;42.664;23.372;2023-02-15T06:13:41;96039.25;;;2.52;82.83
6136;BME280;24008;42.664;23.372;2023-02-15T06:16:09;95998.72;;;2.35;83.70
6136;BME280;24008;42.664;23.372;2023-02-15T06:18:36;96005.03;;;2.45;82.86
6136;BME280;24008;42.664;23.372;2023-02-15T06:21:02;95969.56;;;2.28;82.52
6136;BME280;24008;42.664;23.372;2023-02-15T06:23:29;96043.25;;;2.78;81.92
6136;BME280;24008;42.664;23.372;2023-02-15T06:25:56;96049.69;;;2.85;81.99
6136;BME280;24008;42.664;23.372;2023-02-15T06:28:23;95971.72;;;2.37;80.50
6136;BME280;24008;42.664;23.372;2023-02-15T06:30:53;95974.25;;;2.37;80.69
6136;BME280;24008;42.664;23.372;2023-02-15T06:33:22;96049.53;;;2.89;80.97
6136;BME280;24008;42.664;23.372;2023-02-15T06:35:49;96048.38;;;2.97;80.59
6136;BME280;24008;42.664;23.372;2023-02-15T06:38:15;96049.91;;;3.01;79.47
6136;BME280;24008;42.664;23.372;2023-02-15T06:40:42;96005.06;;;2.85;79.40
6136;BME280;24008;42.664;23.372;2023-02-15T06:43:09;96053.56;;;3.14;79.40
6136;BME280;24008;42.664;23.372;2023-02-15T06:45:36;96049.00;;;3.22;78.72
6136;BME280;24008;42.664;23.372;2023-02-15T06:48:03;96055.44;;;3.29;78.94
6136;BME280;24008;42.664;23.372;2023-02-15T06:50:33;96020.59;;;3.17;78.33
6136;BME280;24008;42.664;23.372;2023-02-15T06:53:00;96018.69;;;3.22;78.32
6136;BME280;24008;42.664;23.372;2023-02-15T06:55:27;96042.53;;;3.55;77.85
6136;BME280;24008;42.664;23.372;2023-02-15T06:57:54;96041.34;;;3.62;77.16
6136;BME280;24008;42.664;23.372;2023-02-15T07:00:21;96034.34;;;3.69;76.25
6136;BME280;24008;42.664;23.372;2023-02-15T07:02:53;96046.25;;;3.86;75.30
6136;BME280;24008;42.664;23.372;2023-02-15T07:05:21;96038.13;;;3.98;74.68
6136;BME280;24008;42.664;23.372;2023-02-15T07:07:50;95958.63;;;3.66;74.84
6136;BME280;24008;42.664;23.372;2023-02-15T07:10:17;96037.59;;;4.27;74.00
6136;BME280;24008;42.664;23.372;2023-02-15T07:12:47;95957.44;;;3.92;71.89
6136;BME280;24008;42.664;23.372;2023-02-15T07:15:14;96002.03;;;4.30;71.33
6136;BME280;24008;42.664;23.372;2023-02-15T07:17:43;96033.16;;;4.50;71.07
6136;BME280;24008;42.664;23.372;2023-02-15T07:20:14;96044.22;;;4.66;70.98
6136;BME280;24008;42.664;23.372;2023-02-15T07:22:42;96021.38;;;4.49;70.49
6136;BME280;24008;42.664;23.372;2023-02-15T07:25:11;95795.91;;;3.14;69.68
6136;BME280;24008;42.664;23.372;2023-02-15T07:28:00;96042.13;;;4.74;69.02
6136;BME280;24008;42.664;23.372;2023-02-15T07:30:28;95578.59;;;1.90;69.36
6136;BME280;24008;42.664;23.372;2023-02-15T07:32:55;96057.03;;;4.97;69.22
6136;BME280;24008;42.664;23.372;2023-02-15T07:35:46;96039.56;;;5.43;68.91
6136;BME280;24008;42.664;23.372;2023-02-15T07:38:13;95993.75;;;5.46;66.16
6136;BME280;24008;42.664;23.372;2023-02-15T07:40:42;95900.06;;;5.12;66.08
6136;BME280;24008;42.664;23.372;2023-02-15T07:43:08;95990.81;;;6.02;64.35
6136;BME280;24008;42.664;23.372;2023-02-15T07:45:35;95999.59;;;6.42;63.70
6136;BME280;24008;42.664;23.372;2023-02-15T07:48:03;96030.84;;;7.04;61.11
6136;BME280;24008;42.664;23.372;2023-02-15T07:50:30;96025.22;;;7.13;60.23
6136;BME280;24008;42.664;23.372;2023-02-15T07:52:58;95545.97;;;4.40;58.58
6136;BME280;24008;42.664;23.372;2023-02-15T07:55:24;96027.72;;;7.29;59.76
6136;BME280;24008;42.664;23.372;2023-02-15T07:57:53;96030.63;;;7.23;59.20
6136;BME280;24008;42.664;23.372;2023-02-15T08:00:21;95912.16;;;6.76;59.21
6136;BME280;24008;42.664;23.372;2023-02-15T08:02:51;96001.28;;;7.46;58.17
6136;BME280;24008;42.664;23.372;2023-02-15T08:05:43;96037.66;;;7.48;58.38
6136;BME280;24008;42.664;23.372;2023-02-15T08:08:11;95960.81;;;6.84;58.71
6136;BME280;24008;42.664;23.372;2023-02-15T08:11:01;96061.00;;;7.83;57.60
6136;BME280;24008;42.664;23.372;2023-02-15T08:13:51;96033.63;;;7.30;57.82
6136;BME280;24008;42.664;23.372;2023-02-15T08:16:22;96041.28;;;7.14;58.81
6136;BME280;24008;42.664;23.372;2023-02-15T08:18:49;96037.03;;;7.14;58.55
6136;BME280;24008;42.664;23.372;2023-02-15T08:21:17;95904.00;;;6.27;58.75
6136;BME280;24008;42.664;23.372;2023-02-15T08:23:44;96034.94;;;7.07;58.40
6136;BME280;24008;42.664;23.372;2023-02-15T08:26:10;95871.59;;;5.85;57.94
6136;BME280;24008;42.664;23.372;2023-02-15T08:28:37;96048.56;;;6.76;59.69
6136;BME280;24008;42.664;23.372;2023-02-15T08:31:06;95892.25;;;5.63;59.74
6136;BME280;24008;42.664;23.372;2023-02-15T08:33:38;96041.56;;;6.34;60.50
6136;BME280;24008;42.664;23.372;2023-02-15T08:36:07;96087.09;;;6.21;60.83
6136;BME280;24008;42.664;23.372;2023-02-15T08:38:34;95974.63;;;5.56;61.45
6136;BME280;24008;42.664;23.372;2023-02-15T08:41:09;96043.22;;;6.03;61.90
6136;BME280;24008;42.664;23.372;2023-02-15T08:43:36;96073.84;;;6.00;62.10
6136;BME280;24008;42.664;23.372;2023-02-15T08:46:03;95980.44;;;5.42;62.41
6136;BME280;24008;42.664;23.372;2023-02-15T08:48:32;95943.69;;;5.34;62.13
6136;BME280;24008;42.664;23.372;2023-02-15T08:51:08;96046.59;;;5.87;62.48
6136;BME280;24008;42.664;23.372;2023-02-15T08:53:36;95640.59;;;3.38;62.71
6136;BME280;24008;42.664;23.372;2023-02-15T08:56:03;96045.41;;;5.94;62.98
6136;BME280;24008;42.664;23.372;2023-02-15T08:58:30;96048.13;;;6.06;62.40
6136;BME280;24008;42.664;23.372;2023-02-15T09:00:57;95660.16;;;3.69;61.25
6136;BME280;24008;42.664;23.372;2023-02-15T09:03:24;95901.72;;;5.44;60.69
6136;BME280;24008;42.664;23.372;2023-02-15T09:05:58;95971.81;;;5.94;59.95
6136;BME280;24008;42.664;23.372;2023-02-15T09:08:25;95953.63;;;6.17;59.09
6136;BME280;24008;42.664;23.372;2023-02-15T09:10:52;96048.09;;;6.99;58.28
6136;BME280;24008;42.664;23.372;2023-02-15T09:13:38;95908.25;;;6.41;57.18
6136;BME280;24008;42.664;23.372;2023-02-15T09:16:07;95972.75;;;7.27;56.21
6136;BME280;24008;42.664;23.372;2023-02-15T09:18:36;96053.44;;;7.67;55.20
6136;BME280;24008;42.664;23.372;2023-02-15T09:21:07;95986.22;;;7.43;55.10
6136;BME280;24008;42.664;23.372;2023-02-15T09:23:34;95964.66;;;7.63;53.26
6136;BME280;24008;42.664;23.372;2023-02-15T09:26:03;95975.97;;;7.85;52.87
6136;BME280;24008;42.664;23.372;2023-02-15T09:28:30;95969.81;;;7.75;51.84
6136;BME280;24008;42.664;23.372;2023-02-15T09:31:04;95809.06;;;7.42;52.34
6136;BME280;24008;42.664;23.372;2023-02-15T09:33:33;96051.00;;;8.76;51.37
6136;BME280;24008;42.664;23.372;2023-02-15T09:36:00;96053.72;;;8.46;52.20
6136;BME280;24008;42.664;23.372;2023-02-15T09:38:28;96072.78;;;8.12;52.69
6136;BME280;24008;42.664;23.372;2023-02-15T09:41:04;95851.56;;;6.40;53.35
6136;BME280;24008;42.664;23.372;2023-02-15T09:43:39;96046.53;;;7.41;54.03
6136;BME280;24008;42.664;23.372;2023-02-15T09:46:21;95352.91;;;3.48;53.87
6136;BME280;24008;42.664;23.372;2023-02-15T09:48:59;95972.94;;;7.52;53.42
6136;BME280;24008;42.664;23.372;2023-02-15T09:51:54;96054.06;;;7.99;53.51
6136;BME280;24008;42.664;23.372;2023-02-15T09:54:35;95935.50;;;7.26;53.71
6136;BME280;24008;42.664;23.372;2023-02-15T09:57:10;96047.06;;;7.88;53.14
6136;BME280;24008;42.664;23.372;2023-02-15T09:59:45;95883.38;;;6.90;53.79
6136;BME280;24008;42.664;23.372;2023-02-15T10:02:27;95937.53;;;7.20;53.98
6136;BME280;24008;42.664;23.372;2023-02-15T10:05:07;95692.03;;;5.46;53.70
6136;BME280;24008;42.664;23.372;2023-02-15T10:10:57;96035.81;;;7.64;53.83
6136;BME280;24008;42.664;23.372;2023-02-15T10:13:54;95401.94;;;3.28;54.17
6136;BME280;24008;42.664;23.372;2023-02-15T10:16:33;95952.88;;;7.19;53.83
6136;BME280;24008;42.664;23.372;2023-02-15T10:19:08;95948.13;;;7.41;53.09
6136;BME280;24008;42.664;23.372;2023-02-15T10:21:47;96031.44;;;7.94;53.31
6136;BME280;24008;42.664;23.372;2023-02-15T10:24:27;96066.25;;;8.08;53.22
6136;BME280;24008;42.664;23.372;2023-02-15T10:27:03;95540.13;;;4.99;52.60
6136;BME280;24008;42.664;23.372;2023-02-15T10:29:36;95896.53;;;7.25;52.45
6136;BME280;24008;42.664;23.372;2023-02-15T10:32:16;96013.84;;;8.18;52.99
6136;BME280;24008;42.664;23.372;2023-02-15T10:34:49;95557.22;;;5.54;52.25
6136;BME280;24008;42.664;23.372;2023-02-15T10:37:32;96009.50;;;8.47;51.88
6136;BME280;24008;42.664;23.372;2023-02-15T10:40:08;95917.44;;;8.39;51.33
6136;BME280;24008;42.664;23.372;2023-02-15T10:42:50;96001.91;;;9.37;50.60
6136;BME280;24008;42.664;23.372;2023-02-15T10:45:27;95924.75;;;9.09;49.42
6136;BME280;24008;42.664;23.372;2023-02-15T10:48:11;95988.94;;;9.15;50.29
6136;BME280;24008;42.664;23.372;2023-02-15T10:50:48;95823.00;;;8.03;50.23
6136;BME280;24008;42.664;23.372;2023-02-15T10:53:34;95985.66;;;8.88;50.94
6136;BME280;24008;42.664;23.372;2023-02-15T10:56:12;95994.41;;;8.84;50.82
6136;BME280;24008;42.664;23.372;2023-02-15T10:58:54;95997.03;;;8.70;51.25
6136;BME280;24008;42.664;23.372;2023-02-15T11:01:28;95958.53;;;8.47;50.78
6136;BME280;24008;42.664;23.372;2023-02-15T11:04:26;95994.78;;;8.38;51.08
6136;BME280;24008;42.664;23.372;2023-02-15T11:06:58;95929.84;;;7.63;52.15
6136;BME280;24008;42.664;23.372;2023-02-15T11:09:35;95988.19;;;7.80;53.00
6136;BME280;24008;42.664;23.372;2023-02-15T11:12:09;95663.00;;;5.66;53.76
6136;BME280;24008;42.664;23.372;2023-02-15T11:14:44;95975.47;;;7.66;54.08
6136;BME280;24008;42.664;23.372;2023-02-15T11:17:16;95981.28;;;7.54;53.64
6136;BME280;24008;42.664;23.372;2023-02-15T11:19:53;95834.38;;;6.45;54.04
6136;BME280;24008;42.664;23.372;2023-02-15T11:22:22;95579.41;;;4.76;54.47
6136;BME280;24008;42.664;23.372;2023-02-15T11:24:49;95963.50;;;7.11;55.59
6136;BME280;24008;42.664;23.372;2023-02-15T11:27:19;95548.41;;;4.57;55.22
6136;BME280;24008;42.664;23.372;2023-02-15T11:29:57;95951.13;;;7.05;55.27
6136;BME280;24008;42.664;23.372;2023-02-15T11:32:27;95984.94;;;7.21;55.89
6136;BME280;24008;42.664;23.372;2023-02-15T11:34:58;95914.44;;;6.95;55.88
6136;BME280;24008;42.664;23.372;2023-02-15T11:37:32;95979.09;;;7.05;55.71
6136;BME280;24008;42.664;23.372;2023-02-15T11:40:02;95974.06;;;6.90;55.98
6136;BME280;24008;42.664;23.372;2023-02-15T11:42:30;95959.28;;;6.82;56.85
6136;BME280;24008;42.664;23.372;2023-02-15T11:45:06;95971.81;;;6.85;56.54
6136;BME280;24008;42.664;23.372;2023-02-15T11:47:41;95962.19;;;6.76;56.47
6136;BME280;24008;42.664;23.372;2023-02-15T11:52:38;95699.47;;;5.19;57.03
6136;BME280;24008;42.664;23.372;2023-02-15T11:55:11;95951.19;;;6.75;57.00
6136;BME280;24008;42.664;23.372;2023-02-15T11:57:41;95895.31;;;6.45;57.26
6136;BME280;24008;42.664;23.372;2023-02-15T12:00:16;95904.88;;;6.56;57.21
6136;BME280;24008;42.664;23.372;2023-02-15T12:02:52;95772.38;;;5.91;56.11
6136;BME280;24008;42.664;23.372;2023-02-15T12:05:22;95938.97;;;6.96;55.89
6136;BME280;24008;42.664;23.372;2023-02-15T12:07:53;95885.34;;;6.57;56.11
6136;BME280;24008;42.664;23.372;2023-02-15T12:10:24;95873.41;;;6.59;56.10
6136;BME280;24008;42.664;23.372;2023-02-15T12:13:09;95929.47;;;6.70;56.92
6136;BME280;24008;42.664;23.372;2023-02-15T12:15:40;95925.47;;;6.66;56.82
6136;BME280;24008;42.664;23.372;2023-02-15T12:18:19;95870.78;;;6.30;56.76
6136;BME280;24008;42.664;23.372;2023-02-15T12:20:46;95931.16;;;6.55;57.20
6136;BME280;24008;42.664;23.372;2023-02-15T12:23:14;95654.63;;;4.90;56.68
6136;BME280;24008;42.664;23.372;2023-02-15T12:25:43;95858.97;;;6.15;56.55
6136;BME280;24008;42.664;23.372;2023-02-15T12:28:23;95914.94;;;6.58;56.76
6136;BME280;24008;42.664;23.372;2023-02-15T12:30:54;95868.03;;;6.19;56.85
6136;BME280;24008;42.664;23.372;2023-02-15T12:33:26;95781.56;;;5.62;56.79
6136;BME280;24008;42.664;23.372;2023-02-15T12:35:58;95919.72;;;6.48;56.48
6136;BME280;24008;42.664;23.372;2023-02-15T12:38:27;95917.03;;;6.51;56.86
6136;BME280;24008;42.664;23.372;2023-02-15T12:41:00;95525.44;;;4.14;56.76
6136;BME280;24008;42.664;23.372;2023-02-15T12:43:31;95816.00;;;6.12;56.76
6136;BME280;24008;42.664;23.372;2023-02-15T12:46:21;95906.72;;;6.82;56.36
6136;BME280;24008;42.664;23.372;2023-02-15T12:49:06;95838.72;;;6.43;56.60
6136;BME280;24008;42.664;23.372;2023-02-15T12:51:44;95887.22;;;6.83;56.36
6136;BME280;24008;42.664;23.372;2023-02-15T12:54:34;95555.09;;;4.88;56.02
6136;BME280;24008;42.664;23.372;2023-02-15T12:57:29;95602.16;;;5.22;55.71
6136;BME280;24008;42.664;23.372;2023-02-15T12:59:57;95893.03;;;6.99;55.75
6136;BME280;24008;42.664;23.372;2023-02-15T13:02:28;95890.50;;;6.99;55.93
6136;BME280;24008;42.664;23.372;2023-02-15T13:04:57;95805.34;;;6.49;55.81
6136;BME280;24008;42.664;23.372;2023-02-15T13:07:31;95824.66;;;6.66;55.66
6136;BME280;24008;42.664;23.372;2023-02-15T13:09:58;95787.47;;;6.37;55.80
6136;BME280;24008;42.664;23.372;2023-02-15T13:12:27;95628.28;;;5.38;55.86
6136;BME280;24008;42.664;23.372;2023-02-15T13:14:56;95718.06;;;5.94;55.78
6136;BME280;24008;42.664;23.372;2023-02-15T13:17:28;95795.34;;;6.32;55.28
6136;BME280;24008;42.664;23.372;2023-02-15T13:19:59;95802.44;;;6.41;56.38
6136;BME280;24008;42.664;23.372;2023-02-15T13:22:33;95868.22;;;6.88;55.59
6136;BME280;24008;42.664;23.372;2023-02-15T13:25:04;95808.97;;;6.45;56.39
6136;BME280;24008;42.664;23.372;2023-02-15T13:27:52;95880.06;;;6.75;56.37
6136;BME280;24008;42.664;23.372;2023-02-15T13:30:24;95882.69;;;6.74;57.05
6136;BME280;24008;42.664;23.372;2023-02-15T13:32:55;95885.94;;;6.76;57.20
6136;BME280;24008;42.664;23.372;2023-02-15T13:35:27;95828.56;;;6.43;57.25
6136;BME280;24008;42.664;23.372;2023-02-15T13:38:14;95888.28;;;6.79;57.05
6136;BME280;24008;42.664;23.372;2023-02-15T13:40:48;95882.78;;;6.86;56.68